Time;durP1;ratioP1;P1;durP2;ratioP2;P2;SDS_P1;SDS_P2;PMS_P1;PMS_P2;Temp;Humidity;BMP_temperature;BMP_pressure;BME280_temperature;BME280_humidity;BME280_pressure;Samples;Min_cycle;Max_cycle;Signal;HPM_P1;HPM_P2
2022/07/07 00:00:10;;;;;;;1.45;0.90;;;16.20;99.90;;;;;;5111522;28;20393;-75
2022/07/07 00:02:36;;;;;;;1.77;0.82;;;16.30;99.90;;;;;;5112162;28;20085;-74
2022/07/07 00:05:03;;;;;;;1.63;1.52;;;16.30;99.90;;;;;;5106234;27;20048;-74
2022/07/07 00:07:29;;;;;;;0.40;0.40;;;16.20;99.90;;;;;;5111927;28;20490;-75
2022/07/07 00:09:56;;;;;;;;;;;16.20;99.90;;;;;;5110476;28;20090;-74
2022/07/07 00:12:22;;;;;;;0.68;0.68;;;16.20;99.90;;;;;;5102848;28;19924;-74
2022/07/07 00:14:48;;;;;;;;;;;16.20;99.90;;;;;;5110765;28;20062;-74
2022/07/07 00:17:14;;;;;;;0.30;0.30;;;16.20;99.90;;;;;;5106325;28;20373;-73
2022/07/07 00:19:39;;;;;;;1.17;0.73;;;16.30;99.90;;;;;;5109904;28;20050;-73
2022/07/07 00:22:05;;;;;;;0.40;0.40;;;16.20;99.90;;;;;;5106010;28;20040;-74
2022/07/07 00:24:31;;;;;;;;;;;16.30;99.90;;;;;;5105538;28;20040;-74
2022/07/07 00:26:57;;;;;;;1.08;1.08;;;16.30;99.90;;;;;;5112431;28;19945;-74
2022/07/07 00:29:23;;;;;;;0.30;0.30;;;16.30;99.90;;;;;;5093431;28;20104;-75
2022/07/07 00:31:48;;;;;;;;;;;16.40;99.90;;;;;;5092132;28;20039;-74
2022/07/07 00:34:14;;;;;;;0.30;0.30;;;16.30;99.90;;;;;;5110013;28;20526;-73
2022/07/07 00:36:41;;;;;;;0.40;0.40;;;16.30;99.90;;;;;;5110604;28;20806;-75
2022/07/07 00:39:07;;;;;;;0.38;0.38;;;16.30;99.90;;;;;;5088541;27;20385;-78
2022/07/07 00:41:33;;;;;;;0.82;0.82;;;16.20;99.90;;;;;;5114302;27;20047;-75
2022/07/07 00:43:59;;;;;;;;;;;16.20;99.90;;;;;;5123005;27;20043;-75
2022/07/07 00:46:41;;;;;;;0.77;0.77;;;16.10;99.90;;;;;;5123184;27;19924;-75
2022/07/07 00:49:10;;;;;;;0.88;0.88;;;16.00;99.90;;;;;;5128038;27;20396;-74
2022/07/07 00:51:40;;;;;;;0.35;0.35;;;15.90;99.90;;;;;;5129249;27;20489;-74
2022/07/07 00:54:08;;;;;;;1.60;0.80;;;15.80;99.90;;;;;;5109852;28;20051;-74
2022/07/07 00:56:43;;;;;;;0.60;0.60;;;15.80;99.90;;;;;;5120758;27;20124;-74
2022/07/07 00:59:09;;;;;;;0.40;0.40;;;15.70;99.90;;;;;;5097470;28;20089;-75
2022/07/07 01:01:36;;;;;;;;;;;15.70;99.90;;;;;;5098797;27;20552;-74
2022/07/07 01:04:03;;;;;;;0.60;0.55;;;15.70;99.90;;;;;;5112938;27;20292;-75
2022/07/07 01:06:30;;;;;;;0.50;0.50;;;15.60;99.90;;;;;;5124529;27;20082;-74
2022/07/07 01:08:56;;;;;;;0.80;0.80;;;15.60;99.90;;;;;;5126339;27;20511;-73
2022/07/07 01:11:22;;;;;;;;;;;15.60;99.90;;;;;;5120849;27;20039;-73
2022/07/07 01:13:48;;;;;;;0.70;0.57;;;15.60;99.90;;;;;;5101555;27;19923;-74
2022/07/07 01:16:13;;;;;;;;;;;15.60;99.90;;;;;;5131528;27;20503;-74
2022/07/07 01:18:41;;;;;;;0.50;0.50;;;15.60;99.90;;;;;;5119698;27;19937;-73
2022/07/07 01:21:11;;;;;;;0.63;0.63;;;15.50;99.90;;;;;;5124397;27;20118;-74
2022/07/07 01:23:36;;;;;;;0.20;0.20;;;15.50;99.90;;;;;;5121787;27;20134;-74
2022/07/07 01:26:02;;;;;;;;;;;15.50;99.90;;;;;;5120329;27;20161;-74
2022/07/07 01:28:28;;;;;;;0.45;0.45;;;15.50;99.90;;;;;;5122858;27;19919;-74
2022/07/07 01:30:58;;;;;;;0.47;0.47;;;15.50;99.90;;;;;;5128675;27;20480;-74
2022/07/07 01:33:26;;;;;;;0.25;0.25;;;15.50;99.90;;;;;;5119671;27;20039;-74
2022/07/07 01:35:58;;;;;;;0.35;0.35;;;15.50;99.90;;;;;;5108158;27;20038;-73
2022/07/07 01:38:25;;;;;;;0.30;0.30;;;15.50;99.90;;;;;;5111991;27;20074;-73
2022/07/07 01:40:51;;;;;;;0.60;0.60;;;15.50;99.90;;;;;;5124754;27;20398;-73
2022/07/07 01:43:17;;;;;;;0.43;0.43;;;15.50;99.90;;;;;;5120970;27;20036;-73
2022/07/07 01:45:43;;;;;;;0.40;0.40;;;15.50;99.90;;;;;;5121342;27;20039;-74
2022/07/07 01:48:09;;;;;;;0.32;0.32;;;15.50;99.90;;;;;;5118304;27;20484;-75
2022/07/07 01:50:35;;;;;;;;;;;15.60;99.90;;;;;;5122931;27;20048;-74
2022/07/07 01:53:00;;;;;;;0.40;0.40;;;15.60;99.90;;;;;;5116397;27;19915;-73
2022/07/07 01:55:26;;;;;;;0.70;0.70;;;15.60;99.90;;;;;;5122634;27;20027;-75
2022/07/07 01:57:52;;;;;;;;;;;15.60;99.90;;;;;;5127467;27;20118;-74
2022/07/07 02:00:18;;;;;;;0.70;0.70;;;15.60;99.90;;;;;;5124974;27;19927;-74
2022/07/07 02:02:44;;;;;;;0.30;0.30;;;15.60;99.90;;;;;;5123214;27;20139;-75
2022/07/07 02:05:09;;;;;;;0.45;0.45;;;15.60;99.90;;;;;;5113019;27;20041;-74
2022/07/07 02:07:35;;;;;;;;;;;15.60;99.90;;;;;;5096444;27;20039;-74
2022/07/07 02:10:01;;;;;;;0.40;0.40;;;15.60;99.90;;;;;;5121836;27;20328;-75
2022/07/07 02:12:28;;;;;;;0.40;0.40;;;15.60;99.90;;;;;;5115303;27;20054;-75
2022/07/07 02:14:54;;;;;;;0.40;0.40;;;15.60;99.90;;;;;;5121149;27;20118;-74
2022/07/07 02:17:20;;;;;;;0.40;0.40;;;15.60;99.90;;;;;;5118894;27;20164;-74
2022/07/07 02:19:45;;;;;;;;;;;15.60;99.90;;;;;;5125079;27;20047;-76
2022/07/07 02:22:11;;;;;;;0.40;0.40;;;15.60;99.90;;;;;;5122749;27;19915;-73
2022/07/07 02:24:42;;;;;;;0.70;0.70;;;15.60;99.90;;;;;;5118220;27;20415;-76
2022/07/07 02:27:11;;;;;;;0.30;0.30;;;15.60;99.90;;;;;;5128931;27;20031;-74
2022/07/07 02:29:37;;;;;;;0.40;0.40;;;15.60;99.90;;;;;;5124575;27;20482;-73
2022/07/07 02:32:04;;;;;;;0.30;0.30;;;15.60;99.90;;;;;;5123518;27;20047;-74
2022/07/07 02:34:33;;;;;;;0.43;0.43;;;15.60;99.90;;;;;;5120638;27;20035;-73
2022/07/07 02:37:05;;;;;;;0.63;0.63;;;15.60;99.90;;;;;;5127298;27;20516;-74
2022/07/07 02:39:32;;;;;;;0.40;0.40;;;15.60;99.90;;;;;;5117025;27;20046;-73
2022/07/07 02:41:57;;;;;;;0.50;0.50;;;15.60;99.90;;;;;;5131588;27;20046;-74
2022/07/07 02:44:24;;;;;;;0.30;0.30;;;15.60;99.90;;;;;;5115981;27;20031;-74
2022/07/07 02:46:50;;;;;;;0.47;0.47;;;15.70;99.90;;;;;;5131131;27;20503;-73
2022/07/07 02:49:16;;;;;;;0.20;0.20;;;15.70;99.90;;;;;;5100187;27;20191;-74
2022/07/07 02:51:41;;;;;;;;;;;15.70;99.90;;;;;;5131030;27;20486;-74
2022/07/07 02:54:07;;;;;;;0.20;0.20;;;15.60;99.90;;;;;;5140606;27;19919;-74
2022/07/07 02:56:34;;;;;;;0.30;0.30;;;15.60;99.90;;;;;;5127875;27;20053;-74
2022/07/07 02:58:59;;;;;;;0.40;0.40;;;15.70;99.90;;;;;;5121584;27;20054;-75
2022/07/07 03:01:33;;;;;;;0.30;0.30;;;15.60;99.90;;;;;;5109314;27;20035;-75
2022/07/07 03:03:58;;;;;;;0.55;0.55;;;15.60;99.90;;;;;;5090957;27;20099;-74
2022/07/07 03:06:24;;;;;;;0.30;0.30;;;15.60;99.90;;;;;;5107506;27;20067;-74
2022/07/07 03:08:50;;;;;;;0.25;0.25;;;15.60;99.90;;;;;;5131528;27;20050;-73
2022/07/07 03:11:15;;;;;;;;;;;15.60;99.90;;;;;;5146425;27;20035;-75
2022/07/07 03:13:41;;;;;;;0.28;0.28;;;15.60;99.90;;;;;;5127240;27;19965;-75
2022/07/07 03:16:06;;;;;;;;;;;15.60;99.90;;;;;;5106718;27;20047;-74
2022/07/07 03:18:32;;;;;;;0.40;0.40;;;15.60;99.90;;;;;;5124713;27;19915;-75
2022/07/07 03:20:58;;;;;;;0.30;0.30;;;15.60;99.90;;;;;;5129074;27;20039;-75
2022/07/07 03:23:23;;;;;;;;;;;15.50;99.90;;;;;;5102158;27;20054;-75
2022/07/07 03:25:49;;;;;;;0.30;0.30;;;15.50;99.90;;;;;;5105997;27;19919;-76
2022/07/07 03:28:14;;;;;;;;;;;15.50;99.90;;;;;;5114346;27;20043;-75
2022/07/07 03:30:40;;;;;;;0.30;0.30;;;15.40;99.90;;;;;;5129262;27;20381;-75
2022/07/07 03:33:06;;;;;;;;;;;15.40;99.90;;;;;;5120532;27;20043;-74
2022/07/07 03:35:33;;;;;;;10.90;0.63;;;15.30;99.90;;;;;;5123604;27;20010;-75
2022/07/07 03:38:01;;;;;;;0.35;0.35;;;15.20;99.90;;;;;;5144845;27;20047;-75
2022/07/07 03:40:29;;;;;;;0.30;0.30;;;15.20;99.90;;;;;;5111304;27;20491;-75
2022/07/07 03:42:55;;;;;;;0.20;0.20;;;15.10;99.90;;;;;;5126326;27;20108;-76
2022/07/07 03:45:21;;;;;;;0.20;0.20;;;15.10;99.90;;;;;;5128158;27;20039;-75
2022/07/07 03:47:47;;;;;;;0.20;0.20;;;15.10;99.90;;;;;;5107005;27;20441;-74
2022/07/07 03:50:13;;;;;;;;;;;15.10;99.90;;;;;;5124848;27;20031;-74
2022/07/07 03:52:39;;;;;;;0.20;0.20;;;15.10;99.90;;;;;;5144884;27;19916;-74
2022/07/07 03:55:05;;;;;;;0.45;0.45;;;15.30;99.90;;;;;;5101498;27;20331;-75
2022/07/07 03:57:31;;;;;;;0.20;0.20;;;15.10;99.90;;;;;;5110129;27;20035;-75
2022/07/07 03:59:57;;;;;;;1.20;0.52;;;15.10;99.90;;;;;;5145782;27;21024;-75
2022/07/07 04:02:23;;;;;;;;;;;15.00;99.90;;;;;;5125169;27;20113;-75
2022/07/07 04:04:49;;;;;;;0.30;0.30;;;15.00;99.90;;;;;;5125366;27;20548;-74
2022/07/07 04:07:15;;;;;;;;;;;15.00;99.90;;;;;;5111914;27;20134;-75
2022/07/07 04:09:41;;;;;;;0.38;0.38;;;15.10;99.90;;;;;;5123621;27;20011;-75
2022/07/07 04:12:07;;;;;;;1.67;1.55;;;15.00;99.90;;;;;;5120378;27;20035;-75
2022/07/07 04:14:33;;;;;;;;;;;15.00;99.90;;;;;;5143541;27;20048;-74
2022/07/07 04:16:58;;;;;;;0.30;0.30;;;14.90;99.90;;;;;;5127251;27;19934;-74
2022/07/07 04:19:24;;;;;;;0.20;0.20;;;14.80;99.90;;;;;;5121893;27;20122;-74
2022/07/07 04:21:50;;;;;;;;;;;14.80;99.90;;;;;;5119264;27;20212;-73
2022/07/07 04:24:18;;;;;;;0.30;0.30;;;14.80;99.90;;;;;;5142243;27;19928;-73
2022/07/07 04:26:44;;;;;;;0.50;0.50;;;14.80;99.90;;;;;;5102994;27;20042;-74
2022/07/07 04:29:10;;;;;;;;;;;14.80;99.90;;;;;;5126353;27;20484;-73
2022/07/07 04:31:35;;;;;;;0.40;0.40;;;14.80;99.90;;;;;;5121754;27;19930;-74
2022/07/07 04:34:04;;;;;;;0.30;0.30;;;14.80;99.90;;;;;;5124510;27;20441;-74
2022/07/07 04:36:29;;;;;;;0.30;0.30;;;14.80;99.90;;;;;;5119012;27;20045;-74
2022/07/07 04:38:56;;;;;;;0.85;0.85;;;14.70;99.90;;;;;;5100902;28;20047;-74
2022/07/07 04:41:22;;;;;;;0.40;0.40;;;14.70;99.90;;;;;;5115616;27;20374;-75
2022/07/07 04:43:47;;;;;;;0.40;0.40;;;14.70;99.90;;;;;;5096318;27;20054;-74
2022/07/07 04:46:13;;;;;;;;;;;14.70;99.90;;;;;;5118206;27;20042;-74
2022/07/07 04:48:39;;;;;;;0.38;0.38;;;14.80;99.90;;;;;;5112861;27;20022;-75
2022/07/07 04:51:05;;;;;;;0.20;0.20;;;14.80;99.90;;;;;;5115752;27;20050;-75
2022/07/07 04:53:30;;;;;;;0.40;0.40;;;14.80;99.90;;;;;;5118512;27;20036;-73
2022/07/07 04:55:57;;;;;;;;;;;14.90;99.90;;;;;;5119605;27;20126;-75
2022/07/07 04:58:26;;;;;;;0.60;0.60;;;14.90;99.90;;;;;;5126316;27;19923;-73
2022/07/07 05:00:51;;;;;;;0.20;0.20;;;15.00;99.90;;;;;;5122974;27;20039;-74
2022/07/07 05:03:20;;;;;;;0.20;0.20;;;15.10;99.90;;;;;;5127334;27;20155;-75
2022/07/07 05:05:46;;;;;;;0.40;0.40;;;15.10;99.90;;;;;;5101269;27;20151;-74
2022/07/07 05:08:11;;;;;;;;;;;15.10;99.90;;;;;;5115523;27;20749;-73
2022/07/07 05:10:38;;;;;;;0.22;0.22;;;15.20;99.90;;;;;;5114826;27;19967;-75
2022/07/07 05:13:05;;;;;;;0.40;0.40;;;15.20;99.90;;;;;;5098151;28;20081;-74
2022/07/07 05:15:30;;;;;;;;;;;15.10;99.90;;;;;;5125428;27;20039;-74
2022/07/07 05:17:56;;;;;;;0.25;0.25;;;15.10;99.90;;;;;;5119845;27;20107;-74
2022/07/07 05:20:21;;;;;;;;;;;15.10;99.90;;;;;;5096384;28;20040;-73
2022/07/07 05:22:48;;;;;;;0.30;0.30;;;15.10;99.90;;;;;;5120204;27;19999;-74
2022/07/07 05:25:14;;;;;;;0.50;0.50;;;15.20;99.90;;;;;;5115329;27;20042;-75
2022/07/07 05:27:40;;;;;;;0.28;0.28;;;15.20;99.90;;;;;;5127634;27;20047;-74
2022/07/07 05:30:08;;;;;;;;;;;15.20;99.90;;;;;;5101142;27;20043;-74
2022/07/07 05:32:34;;;;;;;0.30;0.30;;;15.10;99.90;;;;;;5112211;27;19922;-74
2022/07/07 05:35:01;;;;;;;;;;;15.10;99.90;;;;;;5104466;27;20055;-74
2022/07/07 05:37:35;;;;;;;0.57;0.57;;;15.10;99.90;;;;;;5100261;27;19926;-74
2022/07/07 05:40:00;;;;;;;2.15;1.20;;;15.00;99.90;;;;;;5117010;27;20058;-75
2022/07/07 05:42:26;;;;;;;0.30;0.30;;;15.10;99.90;;;;;;5124738;27;20122;-74
2022/07/07 05:44:52;;;;;;;0.30;0.30;;;15.10;99.90;;;;;;5117945;27;20123;-75
2022/07/07 05:47:17;;;;;;;;;;;15.10;99.90;;;;;;5119648;27;20480;-74
2022/07/07 05:49:49;;;;;;;0.40;0.40;;;15.20;99.90;;;;;;5122739;27;20074;-74
2022/07/07 05:52:15;;;;;;;;;;;15.30;99.90;;;;;;5102707;28;20055;-74
2022/07/07 05:54:40;;;;;;;0.40;0.40;;;15.40;99.90;;;;;;5114082;27;19915;-74
2022/07/07 05:57:06;;;;;;;0.30;0.30;;;15.40;99.90;;;;;;5115654;27;20084;-73
2022/07/07 05:59:33;;;;;;;0.50;0.50;;;15.30;99.90;;;;;;5120920;27;20049;-74
2022/07/07 06:01:58;;;;;;;0.40;0.40;;;15.30;99.90;;;;;;5097990;28;20035;-74
2022/07/07 06:04:26;;;;;;;0.30;0.30;;;15.30;99.90;;;;;;5101593;27;20449;-75
2022/07/07 06:06:52;;;;;;;0.25;0.25;;;15.30;99.90;;;;;;5129098;27;20117;-75
2022/07/07 06:09:18;;;;;;;0.30;0.30;;;15.30;99.90;;;;;;5136395;27;20050;-73
2022/07/07 06:11:44;;;;;;;0.30;0.30;;;15.30;99.90;;;;;;5117477;27;20039;-74
2022/07/07 06:14:10;;;;;;;0.20;0.20;;;15.30;99.90;;;;;;5118111;27;20047;-73
2022/07/07 06:16:39;;;;;;;0.28;0.28;;;15.30;99.90;;;;;;5110587;27;20036;-74
2022/07/07 06:19:05;;;;;;;0.60;0.60;;;15.40;99.90;;;;;;5095298;28;20046;-73
2022/07/07 06:21:31;;;;;;;0.30;0.30;;;15.60;99.90;;;;;;5115988;27;20445;-73
2022/07/07 06:23:57;;;;;;;1.02;1.02;;;15.70;99.90;;;;;;5124861;27;20118;-74
2022/07/07 06:26:22;;;;;;;;;;;15.80;99.90;;;;;;5113183;27;20051;-74
2022/07/07 06:28:52;;;;;;;0.70;0.30;;;16.00;99.90;;;;;;5114087;27;19923;-74
2022/07/07 06:31:17;;;;;;;0.30;0.30;;;16.10;99.90;;;;;;5119731;27;20120;-73
2022/07/07 06:33:43;;;;;;;0.30;0.30;;;16.10;99.90;;;;;;5113091;27;20032;-73
2022/07/07 06:36:09;;;;;;;0.50;0.43;;;16.00;99.90;;;;;;5104717;28;20122;-74
2022/07/07 06:38:34;;;;;;;0.43;0.43;;;16.00;99.90;;;;;;5101634;28;20052;-74
2022/07/07 06:41:00;;;;;;;0.30;0.30;;;15.90;99.90;;;;;;5092605;28;20517;-74
2022/07/07 06:43:27;;;;;;;0.75;0.75;;;15.90;99.90;;;;;;5099526;28;20137;-74
2022/07/07 06:45:52;;;;;;;0.40;0.40;;;15.90;99.90;;;;;;5108538;28;20035;-73
2022/07/07 06:48:20;;;;;;;1.35;0.35;;;16.00;99.90;;;;;;5104517;28;20051;-73
2022/07/07 06:50:46;;;;;;;0.22;0.22;;;16.30;99.90;;;;;;5075713;28;20093;-74
2022/07/07 06:53:12;;;;;;;;;;;16.40;99.90;;;;;;5103813;28;20116;-74
2022/07/07 06:55:38;;;;;;;0.30;0.30;;;16.40;99.90;;;;;;5104293;28;19922;-73
2022/07/07 06:58:04;;;;;;;0.22;0.22;;;16.40;99.90;;;;;;5088164;28;20394;-74
2022/07/07 07:00:30;;;;;;;;;;;16.40;99.90;;;;;;5104911;28;20108;-73
2022/07/07 07:02:56;;;;;;;0.30;0.30;;;16.50;99.90;;;;;;5097393;28;19925;-74
2022/07/07 07:05:22;;;;;;;0.32;0.32;;;16.60;99.90;;;;;;5103591;28;20084;-74
2022/07/07 07:07:48;;;;;;;0.40;0.40;;;16.60;99.90;;;;;;5080126;28;20048;-74
2022/07/07 07:10:15;;;;;;;0.20;0.20;;;16.30;99.90;;;;;;5103126;28;20051;-74
2022/07/07 07:12:41;;;;;;;0.45;0.45;;;16.10;99.90;;;;;;5094397;28;20389;-73
2022/07/07 07:15:08;;;;;;;0.35;0.35;;;15.90;99.90;;;;;;5090113;28;20122;-74
2022/07/07 07:17:34;;;;;;;0.20;0.20;;;16.00;99.90;;;;;;5101360;28;20036;-74
2022/07/07 07:19:59;;;;;;;0.28;0.28;;;16.00;99.90;;;;;;5102450;28;20044;-75
2022/07/07 07:22:26;;;;;;;;;;;16.10;99.90;;;;;;5103266;28;20047;-74
2022/07/07 07:24:53;;;;;;;0.35;0.35;;;16.20;99.90;;;;;;5091051;28;19938;-74
2022/07/07 07:27:19;;;;;;;0.40;0.40;;;16.30;99.90;;;;;;5107005;28;20049;-73
2022/07/07 07:29:45;;;;;;;0.50;0.50;;;16.60;99.90;;;;;;5107003;28;20032;-74
2022/07/07 07:32:10;;;;;;;0.40;0.40;;;16.80;99.90;;;;;;5089941;28;20435;-72
2022/07/07 07:34:37;;;;;;;;;;;16.80;99.90;;;;;;5099749;28;20036;-74
2022/07/07 07:37:03;;;;;;;0.30;0.30;;;16.80;99.90;;;;;;5097933;28;19978;-73
2022/07/07 07:39:29;;;;;;;;;;;16.80;99.90;;;;;;5115083;27;20063;-74
2022/07/07 07:41:54;;;;;;;0.20;0.20;;;16.50;99.90;;;;;;5139710;27;19938;-73
2022/07/07 07:47:05;;;;;;;0.13;0.13;;;16.10;99.90;;;;;;5143480;27;19955;-74
2022/07/07 07:49:30;;;;;;;0.30;0.30;;;16.20;99.90;;;;;;5136730;27;20082;-73
2022/07/07 07:51:56;;;;;;;;;;;16.30;99.90;;;;;;5134271;27;20050;-73
2022/07/07 07:54:22;;;;;;;0.40;0.40;;;16.40;99.90;;;;;;5121582;27;19967;-73
2022/07/07 07:56:48;;;;;;;;;;;16.60;99.90;;;;;;5132387;27;20046;-72
2022/07/07 07:59:14;;;;;;;0.30;0.30;;;16.90;99.90;;;;;;5129332;27;19926;-73
2022/07/07 08:01:41;;;;;;;0.30;0.30;;;17.10;99.90;;;;;;5154688;27;20110;-73
2022/07/07 08:04:06;;;;;;;0.40;0.40;;;17.00;99.90;;;;;;5098442;27;20088;-73
2022/07/07 08:06:32;;;;;;;0.40;0.40;;;16.90;99.90;;;;;;5114045;27;20035;-74
2022/07/07 08:08:58;;;;;;;;;;;16.80;99.90;;;;;;5148106;27;20110;-74
2022/07/07 08:11:23;;;;;;;0.43;0.43;;;16.80;99.90;;;;;;5141468;27;20637;-73
2022/07/07 08:13:49;;;;;;;;;;;16.90;99.90;;;;;;5106091;27;20046;-73
2022/07/07 08:16:15;;;;;;;0.50;0.50;;;17.10;99.90;;;;;;5129597;27;19919;-73
2022/07/07 08:18:40;;;;;;;;;;;17.40;99.90;;;;;;5125477;27;20479;-73
2022/07/07 08:21:06;;;;;;;0.40;0.40;;;17.60;99.90;;;;;;5141998;27;19919;-74
2022/07/07 08:23:31;;;;;;;;;;;17.60;99.90;;;;;;5139221;27;20365;-72
2022/07/07 08:25:57;;;;;;;0.30;0.30;;;17.50;99.90;;;;;;5119004;27;19915;-73
2022/07/07 08:28:23;;;;;;;;;;;17.40;99.90;;;;;;5155193;27;20086;-73
2022/07/07 08:30:49;;;;;;;0.20;0.20;;;17.30;99.90;;;;;;5153190;27;19966;-74
2022/07/07 08:33:15;;;;;;;;;;;17.40;99.90;;;;;;5121881;27;20095;-74
2022/07/07 08:35:41;;;;;;;0.35;0.35;;;17.40;99.90;;;;;;5141799;27;19915;-73
2022/07/07 08:38:06;;;;;;;;;;;17.40;99.90;;;;;;5132017;27;20062;-74
2022/07/07 08:40:32;;;;;;;0.50;0.50;;;17.40;99.90;;;;;;5123103;27;19922;-73
2022/07/07 08:42:59;;;;;;;;;;;17.50;99.90;;;;;;5116817;27;20031;-73
2022/07/07 08:45:25;;;;;;;0.30;0.30;;;17.60;99.90;;;;;;5152217;27;19921;-74
2022/07/07 08:47:51;;;;;;;1.52;1.52;;;17.60;99.90;;;;;;5109141;27;20043;-74
2022/07/07 08:50:17;;;;;;;0.40;0.40;;;17.80;99.90;;;;;;5126894;27;20487;-73
2022/07/07 08:52:45;;;;;;;0.30;0.30;;;18.00;99.90;;;;;;5127807;27;20045;-73
2022/07/07 08:55:15;;;;;;;0.40;0.40;;;18.00;99.90;;;;;;5120121;27;20051;-73
2022/07/07 08:57:42;;;;;;;0.20;0.20;;;17.80;99.90;;;;;;5122239;27;20039;-72
2022/07/07 09:00:08;;;;;;;0.30;0.30;;;17.60;99.90;;;;;;5130531;27;20122;-74
2022/07/07 09:02:34;;;;;;;2.17;0.68;;;17.50;99.90;;;;;;5113486;27;20095;-74
2022/07/07 09:05:00;;;;;;;;;;;17.50;99.90;;;;;;5118923;27;20047;-73
2022/07/07 09:07:50;;;;;;;0.28;0.28;;;17.40;99.90;;;;;;5112044;27;19927;-73
2022/07/07 09:10:29;;;;;;;0.30;0.30;;;17.30;99.90;;;;;;5136506;27;20046;-74
2022/07/07 09:12:56;;;;;;;0.30;0.30;;;17.40;99.90;;;;;;5130055;27;20499;-73
2022/07/07 09:15:22;;;;;;;2.83;2.28;;;17.60;99.90;;;;;;5140382;27;20119;-72
2022/07/07 09:17:52;;;;;;;0.32;0.32;;;17.90;99.90;;;;;;5146718;27;20035;-74
2022/07/07 09:20:18;;;;;;;0.55;0.55;;;18.00;99.90;;;;;;5116458;27;20038;-74
2022/07/07 09:22:48;;;;;;;;;;;17.90;99.90;;;;;;5145090;27;20507;-73
2022/07/07 09:25:16;;;;;;;0.32;0.32;;;17.80;99.90;;;;;;5148719;27;20082;-72
2022/07/07 09:28:07;;;;;;;0.40;0.40;;;17.90;99.90;;;;;;5137586;27;20051;-73
2022/07/07 09:30:36;;;;;;;0.30;0.30;;;17.90;99.90;;;;;;5144078;27;20046;-73
2022/07/07 09:33:23;;;;;;;0.57;0.57;;;17.90;99.90;;;;;;5142815;27;20050;-72
2022/07/07 09:38:34;;;;;;;0.13;0.13;;;17.50;99.90;;;;;;5121336;27;19926;-74
2022/07/07 09:41:13;;;;;;;0.30;0.30;;;16.90;99.90;;;;;;5122728;27;20042;-74
2022/07/07 09:43:39;;;;;;;0.40;0.40;;;16.40;99.90;;;;;;5120180;27;20468;-73
2022/07/07 09:46:15;;;;;;;0.30;0.30;;;16.10;99.90;;;;;;5120369;27;20094;-74
2022/07/07 09:48:45;;;;;;;0.30;0.30;;;16.20;99.90;;;;;;5121369;27;20392;-73
2022/07/07 09:51:11;;;;;;;0.40;0.40;;;16.30;99.90;;;;;;5121149;27;20174;-74
2022/07/07 09:53:59;;;;;;;0.30;0.30;;;16.50;99.90;;;;;;5126350;27;20074;-75
2022/07/07 09:56:29;;;;;;;0.30;0.30;;;16.80;99.90;;;;;;5118855;27;20043;-74
2022/07/07 09:58:56;;;;;;;0.30;0.30;;;17.00;99.90;;;;;;5115147;27;20045;-73
2022/07/07 10:01:25;;;;;;;0.30;0.30;;;17.20;99.90;;;;;;5108676;27;20074;-73
2022/07/07 10:04:03;;;;;;;0.40;0.35;;;17.40;99.90;;;;;;5103194;27;20039;-73
2022/07/07 10:06:31;;;;;;;0.30;0.30;;;17.50;99.90;;;;;;5107176;27;20098;-73
2022/07/07 10:09:20;;;;;;;0.38;0.38;;;17.50;99.90;;;;;;5083135;27;20114;-72
2022/07/07 10:11:54;;;;;;;0.22;0.22;;;17.50;99.90;;;;;;5098713;27;20476;-73
2022/07/07 10:14:42;;;;;;;0.50;0.50;;;17.60;99.90;;;;;;5101365;27;21098;-73
2022/07/07 10:17:09;;;;;;;0.32;0.32;;;17.70;99.90;;;;;;5120128;27;20035;-72
2022/07/07 10:19:36;;;;;;;0.30;0.30;;;17.90;99.90;;;;;;5127566;27;20046;-74
2022/07/07 10:22:04;;;;;;;1.05;0.95;;;17.60;99.90;;;;;;5125808;27;20039;-73
2022/07/07 10:24:32;;;;;;;0.30;0.30;;;17.30;99.90;;;;;;5121895;27;20031;-73
2022/07/07 10:27:00;;;;;;;0.32;0.32;;;17.10;99.90;;;;;;5099955;28;20047;-72
2022/07/07 10:29:41;;;;;;;0.30;0.30;;;17.00;99.90;;;;;;5120930;27;20051;-73
2022/07/07 10:32:14;;;;;;;0.30;0.30;;;17.10;99.90;;;;;;5118415;27;20477;-74
2022/07/07 10:34:49;;;;;;;0.50;0.50;;;17.00;99.90;;;;;;5118149;27;20484;-71
2022/07/07 10:37:14;;;;;;;0.40;0.40;;;17.00;99.90;;;;;;5121758;27;20126;-73
2022/07/07 10:39:44;;;;;;;0.30;0.30;;;17.00;99.90;;;;;;5143845;27;20413;-73
2022/07/07 10:42:17;;;;;;;0.65;0.65;;;17.10;99.90;;;;;;5130377;27;20445;-73
2022/07/07 10:44:53;;;;;;;0.30;0.30;;;17.10;99.90;;;;;;5138134;27;20353;-72
2022/07/07 10:47:22;;;;;;;0.97;0.97;;;17.00;99.90;;;;;;5127067;27;20034;-74
2022/07/07 10:49:52;;;;;;;3.60;1.55;;;16.90;99.90;;;;;;5118886;27;20042;-74
2022/07/07 10:52:21;;;;;;;0.30;0.30;;;16.90;99.90;;;;;;5121351;27;20487;-73
2022/07/07 10:55:06;;;;;;;0.43;0.43;;;17.00;99.90;;;;;;5138541;27;20395;-72
2022/07/07 10:57:43;;;;;;;0.70;0.70;;;17.20;99.90;;;;;;5141265;27;20082;-72
2022/07/07 11:00:11;;;;;;;;;;;17.40;99.90;;;;;;5117170;28;20042;-73
2022/07/07 11:02:44;;;;;;;0.32;0.32;;;17.50;99.90;;;;;;5108144;27;20372;-72
2022/07/07 11:05:10;;;;;;;0.82;0.80;;;17.50;99.90;;;;;;5121243;27;20045;-74
2022/07/07 11:07:36;;;;;;;0.40;0.40;;;17.40;99.90;;;;;;5122399;27;20262;-74
2022/07/07 11:10:03;;;;;;;;;;;17.40;99.90;;;;;;5136522;27;20027;-73
2022/07/07 11:12:37;;;;;;;0.60;0.60;;;17.30;99.90;;;;;;5140208;27;20386;-73
2022/07/07 11:15:18;;;;;;;0.30;0.30;;;17.20;99.90;;;;;;5140167;27;20042;-72
2022/07/07 11:18:09;;;;;;;0.40;0.40;;;17.30;99.90;;;;;;5125556;28;20031;-73
2022/07/07 11:20:35;;;;;;;0.50;0.50;;;17.30;99.90;;;;;;5110892;27;20118;-72
2022/07/07 11:23:08;;;;;;;;;;;17.30;99.90;;;;;;5130219;27;20083;-72
2022/07/07 11:25:34;;;;;;;0.45;0.45;;;17.50;99.90;;;;;;5115659;27;19962;-72
2022/07/07 11:28:01;;;;;;;0.35;0.35;;;17.60;99.90;;;;;;5128843;27;20559;-73
2022/07/07 11:30:28;;;;;;;0.35;0.35;;;17.70;99.90;;;;;;5123019;27;20515;-73
2022/07/07 11:32:58;;;;;;;0.35;0.22;;;17.80;99.90;;;;;;5131786;27;20046;-73
2022/07/07 11:35:36;;;;;;;0.50;0.50;;;17.80;99.90;;;;;;5147973;27;20054;-73
2022/07/07 11:38:05;;;;;;;0.40;0.40;;;17.70;99.90;;;;;;5134557;27;20385;-73
2022/07/07 11:40:31;;;;;;;0.30;0.30;;;18.00;99.90;;;;;;5124200;27;20088;-72
2022/07/07 11:43:00;;;;;;;0.95;0.95;;;18.10;99.90;;;;;;5128369;27;20396;-73
2022/07/07 11:45:31;;;;;;;0.30;0.30;;;18.30;99.90;;;;;;5122161;27;20118;-73
2022/07/07 11:48:08;;;;;;;0.50;0.50;;;18.40;99.90;;;;;;5105174;27;20047;-73
2022/07/07 11:50:35;;;;;;;1.30;1.20;;;18.60;99.90;;;;;;5113808;27;20039;-73
2022/07/07 11:53:03;;;;;;;0.77;0.77;;;18.70;99.90;;;;;;5122183;27;20119;-73
2022/07/07 11:55:29;;;;;;;0.20;0.20;;;18.80;99.90;;;;;;5125478;27;20043;-74
2022/07/07 11:57:56;;;;;;;;;;;18.90;99.90;;;;;;5124458;27;20034;-72
2022/07/07 12:00:27;;;;;;;0.43;0.43;;;19.10;99.90;;;;;;5122629;27;19916;-73
2022/07/07 12:02:57;;;;;;;1.05;0.95;;;19.20;99.90;;;;;;5103159;27;20042;-72
2022/07/07 12:05:28;;;;;;;0.40;0.40;;;19.10;99.90;;;;;;5128006;27;20034;-73
2022/07/07 12:08:05;;;;;;;2.95;0.85;;;18.80;99.90;;;;;;5128254;27;20046;-72
2022/07/07 12:10:35;;;;;;;0.45;0.45;;;18.40;99.90;;;;;;5107282;27;20046;-73
2022/07/07 12:13:03;;;;;;;0.40;0.40;;;18.30;99.90;;;;;;5116366;27;20112;-72
2022/07/07 12:15:41;;;;;;;0.30;0.30;;;18.30;99.90;;;;;;5128983;27;20047;-72
2022/07/07 12:18:09;;;;;;;0.45;0.45;;;18.40;99.90;;;;;;5137875;27;20122;-72
2022/07/07 12:20:36;;;;;;;0.60;0.60;;;18.50;99.90;;;;;;5135272;27;20155;-71
2022/07/07 12:23:03;;;;;;;0.40;0.40;;;18.60;99.90;;;;;;5143035;27;20488;-72
2022/07/07 12:25:31;;;;;;;0.30;0.30;;;18.60;99.90;;;;;;5144776;27;20058;-73
2022/07/07 12:27:59;;;;;;;0.38;0.38;;;18.70;99.90;;;;;;5123259;27;20084;-73
2022/07/07 12:30:27;;;;;;;0.90;0.90;;;18.80;99.90;;;;;;5125717;27;20039;-74
2022/07/07 12:32:54;;;;;;;0.35;0.35;;;18.90;99.90;;;;;;5118720;27;20202;-72
2022/07/07 12:35:33;;;;;;;0.60;0.60;;;18.70;99.90;;;;;;5120414;27;20055;-73
2022/07/07 12:38:02;;;;;;;0.20;0.20;;;18.60;99.90;;;;;;5140745;27;20051;-73
2022/07/07 12:40:33;;;;;;;0.30;0.30;;;18.50;99.90;;;;;;5133745;27;20039;-72
2022/07/07 12:43:10;;;;;;;0.38;0.38;;;18.60;99.90;;;;;;5104059;27;20068;-73
2022/07/07 12:45:42;;;;;;;0.20;0.20;;;18.40;99.90;;;;;;5141480;27;20518;-72
2022/07/07 12:48:17;;;;;;;;;;;18.10;99.90;;;;;;5102003;27;20129;-74
2022/07/07 12:50:50;;;;;;;0.32;0.32;;;17.80;99.90;;;;;;5128446;27;19915;-73
2022/07/07 12:53:16;;;;;;;0.52;0.52;;;17.60;99.90;;;;;;5118449;27;20551;-71
2022/07/07 12:55:42;;;;;;;;;;;17.40;99.90;;;;;;5101619;27;20115;-74
2022/07/07 12:58:17;;;;;;;0.63;0.63;;;17.30;99.90;;;;;;5114422;27;19995;-72
2022/07/07 13:00:56;;;;;;;0.40;0.40;;;17.20;99.90;;;;;;5136887;27;20054;-72
2022/07/07 13:03:21;;;;;;;0.77;0.77;;;17.30;99.90;;;;;;5118593;27;20035;-72
2022/07/07 13:05:47;;;;;;;;;;;17.40;99.90;;;;;;5117630;27;20041;-73
2022/07/07 13:08:13;;;;;;;0.30;0.30;;;17.70;99.90;;;;;;5104378;27;19919;-73
2022/07/07 13:10:39;;;;;;;;;;;17.90;99.90;;;;;;5100580;27;20042;-73